Time;durP1;ratioP1;P1;durP2;ratioP2;P2;SDS_P1;SDS_P2;PMS_P1;PMS_P2;Temp;Humidity;BMP_temperature;BMP_pressure;BME280_temperature;BME280_humidity;BME280_pressure;Samples;Min_cycle;Max_cycle;Signal;HPM_P1;HPM_P2
2022/05/14 00:01:07;;;;;;;;;;;;;;;17.57;40.58;100579.28;4802412;29;984;-62
2022/05/14 00:03:33;;;;;;;;;;;;;;;17.59;40.63;100577.06;4791595;29;754;-62
2022/05/14 00:05:59;;;;;;;;;;;;;;;17.56;40.39;100577.66;4791573;29;887;-62
2022/05/14 00:08:24;;;;;;;;;;;;;;;17.62;40.15;100571.81;4791326;29;891;-62
2022/05/14 00:13:34;;;;;;;;;;;;;;;17.61;40.30;100563.84;4809471;29;853;-62
2022/05/14 00:15:59;;;;;;;;;;;;;;;17.60;40.43;100559.47;4809017;29;1907;-62
2022/05/14 00:18:25;;;;;;;;;;;;;;;17.61;40.50;100566.59;4809530;29;1252;-61
2022/05/14 00:20:51;;;;;;;;;;;;;;;17.60;40.21;100570.47;4809127;29;907;-61
2022/05/14 00:23:16;;;;;;;;;;;;;;;17.56;40.35;100566.66;4809067;29;870;-62
2022/05/14 00:25:42;;;;;;;;;;;;;;;17.57;40.41;100560.88;4809041;29;787;-62
2022/05/14 00:28:07;;;;;;;;;;;;;;;17.60;40.27;100553.97;4809044;29;1179;-62
2022/05/14 00:30:33;;;;;;;;;;;;;;;17.55;40.23;100559.50;4809026;29;1042;-62
2022/05/14 00:32:59;;;;;;;;;;;;;;;17.58;40.62;100551.50;4801570;29;812;-62
2022/05/14 00:35:24;;;;;;;;;;;;;;;17.59;40.22;100555.91;4795098;29;1903;-62
2022/05/14 00:37:50;;;;;;;;;;;;;;;17.60;40.21;100551.25;4810166;29;1094;-62
2022/05/14 00:40:17;;;;;;;;;;;;;;;17.64;40.15;100544.03;4812861;29;819;-62
2022/05/14 00:42:43;;;;;;;;;;;;;;;17.61;40.46;100541.84;4813049;29;800;-61
2022/05/14 00:45:08;;;;;;;;;;;;;;;17.57;40.36;100540.78;4811661;29;1481;-62
2022/05/14 00:47:35;;;;;;;;;;;;;;;17.60;40.11;100540.25;4813188;29;733;-62
2022/05/14 00:50:00;;;;;;;;;;;;;;;17.63;39.98;100534.16;4812773;29;923;-62
2022/05/14 00:52:25;;;;;;;;;;;;;;;17.61;40.13;100541.84;4812713;29;858;-62
2022/05/14 00:55:03;;;;;;;;;;;;;;;17.56;40.12;100547.41;4796485;29;1911;-62
2022/05/14 00:57:31;;;;;;;;;;;;;;;17.59;40.18;100542.16;4811609;29;849;-62
2022/05/14 00:59:57;;;;;;;;;;;;;;;17.60;40.37;100537.50;4812572;29;988;-61
2022/05/14 01:02:23;;;;;;;;;;;;;;;17.59;40.48;100535.84;4811261;29;894;-62
2022/05/14 01:04:48;;;;;;;;;;;;;;;17.58;40.21;100536.94;4812642;29;957;-62
2022/05/14 01:07:16;;;;;;;;;;;;;;;17.57;40.35;100532.53;4812264;29;980;-62
2022/05/14 01:09:45;;;;;;;;;;;;;;;17.56;40.39;100528.97;4810951;29;1153;-62
2022/05/14 01:12:12;;;;;;;;;;;;;;;17.54;40.43;100533.13;4796459;29;1099;-61
2022/05/14 01:14:37;;;;;;;;;;;;;;;17.59;40.29;100531.16;4810915;29;1976;-61
2022/05/14 01:17:03;;;;;;;;;;;;;;;17.60;40.45;100529.25;4795782;29;1375;-62
2022/05/14 01:19:32;;;;;;;;;;;;;;;17.60;40.56;100530.06;4811221;29;952;-61
2022/05/14 01:22:18;;;;;;;;;;;;;;;17.58;40.38;100525.94;4811121;29;1203;-61
2022/05/14 01:27:42;;;;;;;;;;;;;;;17.58;40.32;100525.94;4810690;29;1078;-62
2022/05/14 01:30:08;;;;;;;;;;;;;;;17.55;40.50;100521.03;4810927;29;1628;-61
2022/05/14 01:32:35;;;;;;;;;;;;;;;17.54;40.36;100517.44;4811074;29;1173;-62
2022/05/14 01:35:00;;;;;;;;;;;;;;;17.55;40.23;100510.84;4809052;29;1912;-62
2022/05/14 01:37:28;;;;;;;;;;;;;;;17.59;40.10;100509.16;4810320;29;1139;-61
2022/05/14 01:39:53;;;;;;;;;;;;;;;17.61;40.28;100503.38;4805148;29;1172;-61
2022/05/14 01:42:19;;;;;;;;;;;;;;;17.53;40.27;100510.31;4792626;30;1306;-61
2022/05/14 01:44:46;;;;;;;;;;;;;;;17.57;40.15;100497.63;4791478;29;1173;-61
2022/05/14 01:47:11;;;;;;;;;;;;;;;17.52;40.15;100496.84;4811451;29;867;-62
2022/05/14 01:49:37;;;;;;;;;;;;;;;17.58;40.30;100495.69;4811394;29;735;-61
2022/05/14 01:52:03;;;;;;;;;;;;;;;17.55;40.27;100493.53;4809812;29;1119;-61
2022/05/14 01:54:28;;;;;;;;;;;;;;;17.60;39.99;100499.00;4811481;29;1895;-61
2022/05/14 01:56:54;;;;;;;;;;;;;;;17.51;40.45;100497.97;4811617;29;824;-61
2022/05/14 01:59:20;;;;;;;;;;;;;;;17.55;40.20;100488.84;4810243;29;1543;-62
2022/05/14 02:01:46;;;;;;;;;;;;;;;17.58;40.03;100498.44;4810297;29;1357;-62
2022/05/14 02:04:12;;;;;;;;;;;;;;;17.54;40.06;100489.94;4809968;29;1197;-61
2022/05/14 02:06:38;;;;;;;;;;;;;;;17.54;40.09;100481.69;4809793;29;1467;-62
2022/05/14 02:09:05;;;;;;;;;;;;;;;17.55;40.13;100483.34;4810579;29;1483;-61
2022/05/14 02:11:30;;;;;;;;;;;;;;;17.59;39.93;100484.41;4810210;29;1155;-61
2022/05/14 02:14:06;;;;;;;;;;;;;;;17.51;40.34;100475.97;4809807;29;1915;-61
2022/05/14 02:16:31;;;;;;;;;;;;;;;17.53;40.13;100476.47;4811353;29;981;-61
2022/05/14 02:18:57;;;;;;;;;;;;;;;17.57;40.33;100474.81;4809698;29;1294;-60
2022/05/14 02:21:24;;;;;;;;;;;;;;;17.53;40.29;100479.22;4810226;29;1126;-60
2022/05/14 02:23:52;;;;;;;;;;;;;;;17.56;40.14;100479.50;4809553;29;2013;-60
2022/05/14 02:26:17;;;;;;;;;;;;;;;17.53;40.19;100473.72;4809796;29;1221;-60
2022/05/14 02:28:43;;;;;;;;;;;;;;;17.55;40.17;100477.03;4809562;29;1255;-60
2022/05/14 02:31:09;;;;;;;;;;;;;;;17.55;40.11;100482.53;4810528;29;803;-61
2022/05/14 02:33:34;;;;;;;;;;;;;;;17.54;40.21;100469.88;4811039;29;909;-60
2022/05/14 02:36:00;;;;;;;;;;;;;;;17.57;40.29;100478.38;4810898;29;1908;-61
2022/05/14 02:38:27;;;;;;;;;;;;;;;17.56;40.24;100484.19;4809328;29;785;-61
2022/05/14 02:40:53;;;;;;;;;;;;;;;17.51;40.27;100475.97;4811171;29;816;-61
2022/05/14 02:43:19;;;;;;;;;;;;;;;17.60;39.92;100477.81;4809576;29;1332;-61
2022/05/14 02:45:44;;;;;;;;;;;;;;;17.57;40.02;100478.38;4809886;29;1115;-61
2022/05/14 02:48:10;;;;;;;;;;;;;;;17.53;40.05;100476.47;4810802;29;796;-61
2022/05/14 02:50:36;;;;;;;;;;;;;;;17.49;40.22;100478.16;4809717;29;1158;-61
2022/05/14 02:53:02;;;;;;;;;;;;;;;17.50;40.07;100479.81;4810431;29;776;-60
2022/05/14 02:55:27;;;;;;;;;;;;;;;17.48;40.27;100479.28;4810416;29;1974;-60
2022/05/14 02:57:53;;;;;;;;;;;;;;;17.53;40.09;100484.72;4810185;29;902;-60
2022/05/14 03:00:19;;;;;;;;;;;;;;;17.52;40.24;100481.16;4808841;29;1514;-60
2022/05/14 03:02:45;;;;;;;;;;;;;;;17.42;40.64;100479.31;4810666;29;854;-60
2022/05/14 03:05:12;;;;;;;;;;;;;;;17.47;40.43;100472.16;4809109;29;1127;-61
2022/05/14 03:07:39;;;;;;;;;;;;;;;17.44;40.53;100479.84;4808886;29;829;-59
2022/05/14 03:10:04;;;;;;;;;;;;;;;17.44;40.56;100476.28;4810192;29;855;-59
2022/05/14 03:12:30;;;;;;;;;;;;;;;17.41;40.78;100480.41;4810400;29;850;-59
2022/05/14 03:14:55;;;;;;;;;;;;;;;17.46;40.67;100479.59;4809882;29;1972;-58
2022/05/14 03:17:21;;;;;;;;;;;;;;;17.42;40.60;100484.81;4809960;29;768;-58
2022/05/14 03:19:47;;;;;;;;;;;;;;;17.44;40.55;100482.59;4810277;29;821;-60
2022/05/14 03:22:13;;;;;;;;;;;;;;;17.48;40.54;100488.34;4809816;29;882;-62
2022/05/14 03:24:38;;;;;;;;;;;;;;;17.45;40.63;100483.44;4809059;29;1135;-62
2022/05/14 03:27:04;;;;;;;;;;;;;;;17.47;40.60;100489.44;4808701;29;1116;-64
2022/05/14 03:29:30;;;;;;;;;;;;;;;17.49;40.68;100483.66;4808799;29;1254;-65
2022/05/14 03:31:57;;;;;;;;;;;;;;;17.48;40.82;100487.53;4807928;29;1289;-63
2022/05/14 03:34:23;;;;;;;;;;;;;;;17.57;40.34;100486.63;4820774;29;1899;-64
2022/05/14 03:36:49;;;;;;;;;;;;;;;17.46;40.52;100490.56;4797715;29;1516;-63
2022/05/14 03:39:15;;;;;;;;;;;;;;;17.53;40.50;100492.97;4808789;29;1262;-63
2022/05/14 03:41:41;;;;;;;;;;;;;;;17.49;40.70;100494.66;4809720;29;872;-63
2022/05/14 03:44:06;;;;;;;;;;;;;;;17.49;40.62;100494.66;4807783;29;1244;-63
2022/05/14 03:46:32;;;;;;;;;;;;;;;17.50;40.94;100499.06;4809471;29;977;-63
2022/05/14 03:48:57;;;;;;;;;;;;;;;17.52;40.79;100497.66;4792655;29;1445;-64
2022/05/14 03:51:23;;;;;;;;;;;;;;;17.56;40.88;100500.69;4803631;29;1447;-60
2022/05/14 03:53:49;;;;;;;;;;;;;;;17.55;40.65;100501.78;4807669;29;1159;-62
2022/05/14 03:56:15;;;;;;;;;;;;;;;17.61;41.15;100508.88;4808786;29;1923;-59
2022/05/14 03:58:41;;;;;;;;;;;;;;;17.65;41.26;100498.13;4808807;29;799;-61
2022/05/14 04:01:06;;;;;;;;;;;;;;;17.62;41.49;100505.00;4809134;29;1069;-61
2022/05/14 04:03:32;;;;;;;;;;;;;;;17.61;41.51;100508.88;4808215;29;1000;-60
2022/05/14 04:05:59;;;;;;;;;;;;;;;17.66;41.44;100516.28;4807861;29;1271;-60
2022/05/14 04:08:25;;;;;;;;;;;;;;;17.66;41.55;100514.34;4807973;29;1275;-59
2022/05/14 04:10:51;;;;;;;;;;;;;;;17.66;41.85;100522.59;4807665;29;764;-59
2022/05/14 04:13:17;;;;;;;;;;;;;;;17.74;41.89;100530.22;4809251;29;906;-61
2022/05/14 04:15:42;;;;;;;;;;;;;;;17.67;41.87;100512.41;4807754;29;1911;-61
2022/05/14 04:18:09;;;;;;;;;;;;;;;17.71;41.89;100524.47;4804448;29;1685;-62
2022/05/14 04:20:35;;;;;;;;;;;;;;;17.74;42.00;100515.63;4808242;29;1200;-65
2022/05/14 04:23:02;;;;;;;;;;;;;;;17.75;41.89;100525.53;4807889;29;1224;-66
2022/05/14 04:25:27;;;;;;;;;;;;;;;17.72;41.77;100520.59;4808999;29;898;-64
2022/05/14 04:27:53;;;;;;;;;;;;;;;17.71;41.61;100528.06;4807734;29;1306;-65
2022/05/14 04:30:18;;;;;;;;;;;;;;;17.77;41.34;100523.31;4808599;29;986;-66
2022/05/14 04:32:46;;;;;;;;;;;;;;;17.72;41.27;100520.59;4808016;29;1360;-64
2022/05/14 04:35:12;;;;;;;;;;;;;;;17.74;41.43;100521.13;4809468;29;1911;-64
2022/05/14 04:37:37;;;;;;;;;;;;;;;17.72;41.43;100521.41;4807348;29;1207;-64
2022/05/14 04:40:04;;;;;;;;;;;;;;;17.77;41.46;100518.63;4809309;29;757;-64
2022/05/14 04:42:30;;;;;;;;;;;;;;;17.77;41.76;100515.06;4823047;29;1140;-63
2022/05/14 04:44:56;;;;;;;;;;;;;;;17.81;41.68;100513.41;4822703;29;1168;-62
2022/05/14 04:47:21;;;;;;;;;;;;;;;17.75;41.56;100515.38;4808223;29;1124;-62
2022/05/14 04:49:47;;;;;;;;;;;;;;;17.77;41.83;100512.31;4807781;29;1163;-62
2022/05/14 04:52:14;;;;;;;;;;;;;;;17.80;41.50;100517.25;4808359;29;867;-61
2022/05/14 04:54:39;;;;;;;;;;;;;;;17.79;41.63;100519.19;4809177;29;1904;-62
2022/05/14 04:57:05;;;;;;;;;;;;;;;17.87;41.59;100522.41;4807783;29;1128;-61
2022/05/14 04:59:31;;;;;;;;;;;;;;;17.81;41.48;100513.41;4806698;29;1156;-61
2022/05/14 05:04:41;;;;;;;;;;;;;;;17.85;41.74;100530.97;4808072;29;1359;-60
2022/05/14 05:07:07;;;;;;;;;;;;;;;17.89;41.45;100528.44;4807732;29;1223;-59
2022/05/14 05:09:32;;;;;;;;;;;;;;;17.91;41.61;100529.03;4809411;29;880;-61
2022/05/14 05:11:58;;;;;;;;;;;;;;;17.87;41.65;100527.91;4808222;29;1205;-60
2022/05/14 05:14:23;;;;;;;;;;;;;;;17.87;41.83;100527.91;4807218;29;1911;-67
2022/05/14 05:16:50;;;;;;;;;;;;;;;17.93;41.92;100532.28;4801644;29;1026;-64
2022/05/14 05:19:16;;;;;;;;;;;;;;;17.96;41.58;100531.69;4811449;29;1221;-66
2022/05/14 05:21:41;;;;;;;;;;;;;;;17.98;41.91;100531.41;4811494;29;1252;-63
2022/05/14 05:24:07;;;;;;;;;;;;;;;17.96;41.72;100531.69;4812383;29;868;-63
2022/05/14 05:26:33;;;;;;;;;;;;;;;17.97;41.88;100527.03;4812083;29;903;-63
2022/05/14 05:28:58;;;;;;;;;;;;;;;18.02;42.10;100536.06;4810935;29;1098;-63
2022/05/14 05:31:23;;;;;;;;;;;;;;;18.01;42.18;100534.41;4811537;29;1244;-63
2022/05/14 05:33:49;;;;;;;;;;;;;;;18.07;42.00;100535.19;4811099;29;1197;-60
2022/05/14 05:36:14;;;;;;;;;;;;;;;18.09;42.24;100547.56;4810968;29;1970;-61
2022/05/14 05:38:40;;;;;;;;;;;;;;;18.10;42.45;100546.44;4811626;29;1276;-60
2022/05/14 05:41:05;;;;;;;;;;;;;;;18.13;42.45;100545.88;4811300;29;1434;-61
2022/05/14 05:43:31;;;;;;;;;;;;;;;18.18;42.58;100541.44;4811640;29;864;-62
2022/05/14 05:45:56;;;;;;;;;;;;;;;18.20;42.30;100541.94;4811975;29;1057;-60
2022/05/14 05:48:22;;;;;;;;;;;;;;;18.19;42.46;100551.31;4811760;29;848;-61
2022/05/14 05:50:48;;;;;;;;;;;;;;;18.08;41.75;100556.91;4811530;29;848;-62
2022/05/14 05:53:14;;;;;;;;;;;;;;;17.93;41.06;100549.59;4811410;29;875;-63
2022/05/14 05:58:24;;;;;;;;;;;;;;;17.82;39.94;100558.22;4811343;29;855;-62
2022/05/14 06:00:49;;;;;;;;;;;;;;;17.78;39.52;100557.94;4811075;29;1003;-61
2022/05/14 06:03:15;;;;;;;;;;;;;;;17.65;39.64;100555.88;4809925;29;856;-61
2022/05/14 06:05:41;;;;;;;;;;;;;;;17.61;39.47;100563.84;4810691;29;1315;-62
2022/05/14 06:08:07;;;;;;;;;;;;;;;17.57;39.47;100557.28;4810963;29;948;-62
2022/05/14 06:10:33;;;;;;;;;;;;;;;17.49;39.30;100555.13;4811180;29;1276;-62
2022/05/14 06:12:58;;;;;;;;;;;;;;;17.50;39.05;100557.63;4811479;29;911;-61
2022/05/14 06:15:24;;;;;;;;;;;;;;;17.40;39.11;100564.00;4811164;29;1911;-60
2022/05/14 06:17:49;;;;;;;;;;;;;;;17.37;39.40;100559.06;4811213;29;855;-61
2022/05/14 06:20:15;;;;;;;;;;;;;;;17.39;39.04;100561.50;4810837;29;819;-61
2022/05/14 06:22:40;;;;;;;;;;;;;;;17.35;39.14;100561.28;4811414;29;760;-60
2022/05/14 06:25:06;;;;;;;;;;;;;;;17.34;38.92;100558.81;4811462;29;741;-60
2022/05/14 06:27:32;;;;;;;;;;;;;;;17.35;39.12;100555.78;4810635;29;1087;-62
2022/05/14 06:29:57;;;;;;;;;;;;;;;17.32;39.34;100561.00;4810115;29;1032;-62
2022/05/14 06:32:23;;;;;;;;;;;;;;;17.24;39.39;100548.72;4810635;29;1616;-60
2022/05/14 06:34:48;;;;;;;;;;;;;;;17.28;39.31;100556.09;4810626;29;1978;-61
2022/05/14 06:37:14;;;;;;;;;;;;;;;17.22;39.44;100557.25;4811252;29;812;-62
2022/05/14 06:39:39;;;;;;;;;;;;;;;17.23;39.37;100545.13;4810961;29;910;-61
2022/05/14 06:42:05;;;;;;;;;;;;;;;17.20;39.48;100551.19;4810723;29;943;-61
2022/05/14 06:44:36;;;;;;;;;;;;;;;17.19;39.76;100560.53;4810981;29;844;-61
2022/05/14 06:47:01;;;;;;;;;;;;;;;17.32;40.37;100544.53;4810088;29;1126;-61
2022/05/14 06:49:27;;;;;;;;;;;;;;;17.53;41.89;100542.47;4810693;29;749;-60
2022/05/14 06:51:52;;;;;;;;;;;;;;;17.73;42.61;100539.56;4810833;29;804;-60
2022/05/14 06:54:18;;;;;;;;;;;;;;;17.85;43.02;100541.97;4809436;29;1907;-61
2022/05/14 06:56:43;;;;;;;;;;;;;;;17.94;43.40;100533.94;4809143;29;931;-61
2022/05/14 06:59:09;;;;;;;;;;;;;;;18.03;43.87;100540.44;4809965;29;1387;-61
2022/05/14 07:01:35;;;;;;;;;;;;;;;18.13;44.11;100526.59;4809936;29;1090;-60
2022/05/14 07:06:46;;;;;;;;;;;;;;;18.28;44.25;100533.06;4810451;29;848;-58
2022/05/14 07:09:24;;;;;;;;;;;;;;;18.34;44.38;100534.66;4810242;29;884;-60
2022/05/14 07:11:51;;;;;;;;;;;;;;;18.37;44.86;100535.97;4809826;29;862;-58
2022/05/14 07:14:16;;;;;;;;;;;;;;;18.35;44.33;100532.72;4810151;29;1900;-59
2022/05/14 07:16:42;;;;;;;;;;;;;;;18.22;43.51;100531.47;4810274;29;980;-58
2022/05/14 07:19:08;;;;;;;;;;;;;;;18.06;42.92;100531.63;4809596;29;817;-61
2022/05/14 07:21:34;;;;;;;;;;;;;;;17.91;41.74;100531.78;4809666;29;1332;-63
2022/05/14 07:24:02;;;;;;;;;;;;;;;17.78;41.06;100536.78;4807725;29;1352;-60
2022/05/14 07:26:27;;;;;;;;;;;;;;;17.73;40.31;100528.56;4809942;29;867;-62
2022/05/14 07:28:53;;;;;;;;;;;;;;;17.59;40.10;100531.16;4809915;29;1047;-60
2022/05/14 07:31:18;;;;;;;;;;;;;;;17.54;39.52;100530.38;4803324;29;1136;-60
2022/05/14 07:33:44;;;;;;;;;;;;;;;17.44;39.60;100526.56;4791720;29;890;-62
2022/05/14 07:36:14;;;;;;;;;;;;;;;17.44;39.26;100534.00;4795333;29;1982;-60
2022/05/14 07:38:40;;;;;;;;;;;;;;;17.36;39.08;100532.69;4808656;29;961;-61
2022/05/14 07:41:05;;;;;;;;;;;;;;;17.29;38.98;100537.66;4807875;29;758;-62
2022/05/14 07:43:31;;;;;;;;;;;;;;;17.23;38.97;100536.06;4808538;29;1046;-61
2022/05/14 07:45:59;;;;;;;;;;;;;;;17.19;38.90;100537.72;4808501;29;1005;-60
2022/05/14 07:48:31;;;;;;;;;;;;;;;17.20;38.93;100531.16;4809629;29;813;-61
2022/05/14 07:50:57;;;;;;;;;;;;;;;17.14;38.88;100537.75;4809922;29;753;-63
2022/05/14 07:53:23;;;;;;;;;;;;;;;17.12;38.83;100538.03;4809815;29;822;-60
2022/05/14 07:55:49;;;;;;;;;;;;;;;17.24;39.74;100545.97;4809730;29;1912;-61
2022/05/14 07:58:14;;;;;;;;;;;;;;;17.40;40.79;100550.25;4809830;29;829;-61
2022/05/14 08:00:40;;;;;;;;;;;;;;;17.61;41.94;100541.84;4809212;29;1035;-61
2022/05/14 08:03:06;;;;;;;;;;;;;;;17.78;42.56;100547.78;4808816;29;1394;-61
2022/05/14 08:05:31;;;;;;;;;;;;;;;17.89;43.33;100542.19;4809655;29;903;-65
2022/05/14 08:07:57;;;;;;;;;;;;;;;18.01;43.82;100544.63;4809645;29;887;-62
2022/05/14 08:10:24;;;;;;;;;;;;;;;18.12;44.19;100541.47;4808926;29;804;-59
2022/05/14 08:12:53;;;;;;;;;;;;;;;18.16;44.42;100543.63;4810016;29;878;-60
2022/05/14 08:15:19;;;;;;;;;;;;;;;18.26;44.44;100547.13;4808595;29;1911;-60
2022/05/14 08:17:45;;;;;;;;;;;;;;;18.32;44.60;100545.13;4809563;29;928;-60
2022/05/14 08:20:10;;;;;;;;;;;;;;;18.36;44.55;100539.88;4809429;29;840;-59
2022/05/14 08:25:20;;;;;;;;;;;;;;;18.13;43.19;100543.13;4809414;29;1035;-59
2022/05/14 08:27:45;;;;;;;;;;;;;;;18.00;42.23;100543.78;4808425;29;1221;-62
2022/05/14 08:30:14;;;;;;;;;;;;;;;17.90;41.57;100543.84;4808984;29;1004;-61
2022/05/14 08:32:39;;;;;;;;;;;;;;;17.79;40.98;100543.09;4808852;29;1241;-62
2022/05/14 08:35:07;;;;;;;;;;;;;;;17.70;40.60;100544.84;4808606;29;1985;-61
2022/05/14 08:37:32;;;;;;;;;;;;;;;17.61;39.92;100550.09;4809399;29;868;-61
2022/05/14 08:39:57;;;;;;;;;;;;;;;17.62;39.66;100560.81;4808963;29;941;-58
2022/05/14 08:42:23;;;;;;;;;;;;;;;17.59;39.42;100560.59;4809058;29;883;-58
2022/05/14 08:44:49;;;;;;;;;;;;;;;17.44;39.52;100565.06;4809172;29;988;-62
2022/05/14 08:47:26;;;;;;;;;;;;;;;17.44;39.14;100567.00;4808879;29;868;-63
2022/05/14 08:49:53;;;;;;;;;;;;;;;17.34;39.37;100559.63;4808889;29;782;-61
2022/05/14 08:52:20;;;;;;;;;;;;;;;17.33;39.40;100568.97;4807550;29;938;-61
2022/05/14 08:54:45;;;;;;;;;;;;;;;17.32;39.35;100563.75;4811730;29;1907;-61
2022/05/14 08:57:24;;;;;;;;;;;;;;;17.30;39.30;100576.97;4812437;29;875;-63
2022/05/14 08:59:55;;;;;;;;;;;;;;;17.28;38.89;100572.56;4811681;29;1036;-61
2022/05/14 09:02:40;;;;;;;;;;;;;;;17.26;39.04;100579.47;4812176;29;856;-58
2022/05/14 09:05:09;;;;;;;;;;;;;;;17.21;39.59;100577.56;4812060;29;862;-61
2022/05/14 09:07:36;;;;;;;;;;;;;;;17.38;40.13;100582.69;4810321;29;1253;-59
2022/05/14 09:10:02;;;;;;;;;;;;;;;17.56;41.18;100580.41;4811407;29;1027;-60
2022/05/14 09:12:29;;;;;;;;;;;;;;;17.75;41.78;100584.13;4812117;29;1142;-60
2022/05/14 09:14:58;;;;;;;;;;;;;;;17.87;42.53;100589.25;4812087;29;1903;-62
2022/05/14 09:17:24;;;;;;;;;;;;;;;17.96;43.26;100586.72;4810569;29;920;-61
2022/05/14 09:19:50;;;;;;;;;;;;;;;18.00;43.62;100585.03;4812064;29;1507;-60
2022/05/14 09:22:18;;;;;;;;;;;;;;;18.11;43.61;100574.78;4812320;29;823;-61
2022/05/14 09:24:45;;;;;;;;;;;;;;;18.19;43.85;100578.81;4810519;29;1089;-61
2022/05/14 09:27:12;;;;;;;;;;;;;;;18.23;44.18;100585.38;4811824;29;1253;-59
2022/05/14 09:29:41;;;;;;;;;;;;;;;18.27;44.46;100583.69;4806791;29;1149;-60
2022/05/14 09:32:27;;;;;;;;;;;;;;;18.30;44.43;100585.91;4807581;29;995;-60
2022/05/14 09:35:02;;;;;;;;;;;;;;;18.40;44.54;100579.47;4811202;29;1908;-59
2022/05/14 09:37:28;;;;;;;;;;;;;;;18.32;44.03;100578.16;4812075;29;750;-60
2022/05/14 09:39:57;;;;;;;;;;;;;;;18.22;43.36;100572.75;4812124;29;740;-58
2022/05/14 09:42:23;;;;;;;;;;;;;;;18.12;42.24;100574.50;4811721;29;967;-61
2022/05/14 09:44:49;;;;;;;;;;;;;;;17.99;41.37;100574.31;4811198;29;862;-60
2022/05/14 09:47:16;;;;;;;;;;;;;;;17.88;40.71;100568.03;4812039;29;819;-57
2022/05/14 09:49:42;;;;;;;;;;;;;;;17.76;40.27;100566.50;4812216;29;823;-60
2022/05/14 09:52:12;;;;;;;;;;;;;;;17.72;39.83;100557.16;4810120;29;1193;-59
2022/05/14 09:54:43;;;;;;;;;;;;;;;17.58;39.80;100561.69;4811338;29;1907;-61
2022/05/14 09:57:12;;;;;;;;;;;;;;;17.61;39.69;100558.34;4811456;29;858;-60
2022/05/14 09:59:48;;;;;;;;;;;;;;;17.56;39.13;100559.22;4811591;29;832;-60
2022/05/14 10:02:22;;;;;;;;;;;;;;;17.53;39.09;100556.22;4810068;29;981;-58
2022/05/14 10:05:17;;;;;;;;;;;;;;;17.44;39.09;100553.25;4810406;29;849;-59
2022/05/14 10:07:46;;;;;;;;;;;;;;;17.40;39.15;100561.25;4793718;29;1195;-62
2022/05/14 10:10:12;;;;;;;;;;;;;;;17.33;38.94;100559.91;4810098;29;851;-57
2022/05/14 10:12:38;;;;;;;;;;;;;;;17.35;38.83;100555.78;4810975;29;823;-59
2022/05/14 10:15:22;;;;;;;;;;;;;;;17.31;39.12;100554.72;4809924;29;1903;-58
2022/05/14 10:18:00;;;;;;;;;;;;;;;17.28;39.00;100549.78;4810817;29;1268;-58
2022/05/14 10:20:30;;;;;;;;;;;;;;;17.24;38.82;100554.19;4810474;29;1205;-60
2022/05/14 10:28:53;;;;;;;;;;;;;;;17.14;38.87;100548.75;4804950;29;1264;-60
2022/05/14 10:31:44;;;;;;;;;;;;;;;17.25;39.42;100550.31;4803702;29;997;-62
2022/05/14 10:34:11;;;;;;;;;;;;;;;17.42;40.43;100550.78;4773073;29;1161;-61
2022/05/14 10:36:57;;;;;;;;;;;;;;;17.55;41.52;100546.56;4808113;29;1907;-62
2022/05/14 10:39:39;;;;;;;;;;;;;;;17.69;42.08;100537.69;4811356;29;737;-61
2022/05/14 10:42:24;;;;;;;;;;;;;;;17.87;42.59;100534.22;4811183;29;792;-58
2022/05/14 10:44:51;;;;;;;;;;;;;;;17.97;42.97;100540.78;4791792;29;1042;-57
2022/05/14 10:47:17;;;;;;;;;;;;;;;18.01;43.50;100539.91;4809406;29;1268;-59
2022/05/14 10:49:54;;;;;;;;;;;;;;;18.02;43.65;100541.56;4809286;29;1122;-59
2022/05/14 10:52:20;;;;;;;;;;;;;;;18.12;43.62;100529.66;4810617;29;1058;-61
2022/05/14 10:54:45;;;;;;;;;;;;;;;18.19;43.88;100540.28;4809647;29;1911;-59
2022/05/14 10:57:14;;;;;;;;;;;;;;;18.23;43.97;100530.34;4810297;29;1098;-59
2022/05/14 11:00:06;;;;;;;;;;;;;;;18.27;44.38;100528.66;4809593;29;1004;-60
2022/05/14 11:02:32;;;;;;;;;;;;;;;18.34;44.58;100525.56;4809454;29;1280;-61
2022/05/14 11:04:57;;;;;;;;;;;;;;;18.33;44.41;100524.75;4810413;29;1562;-60
2022/05/14 11:07:30;;;;;;;;;;;;;;;18.30;44.20;100528.09;4809006;29;785;-58
2022/05/14 11:10:06;;;;;;;;;;;;;;;18.19;43.36;100526.53;4810223;29;856;-60
2022/05/14 11:12:32;;;;;;;;;;;;;;;18.06;42.27;100530.78;4809855;29;870;-59
2022/05/14 11:14:58;;;;;;;;;;;;;;;17.93;41.75;100529.53;4809778;29;1907;-61
2022/05/14 11:17:26;;;;;;;;;;;;;;;17.79;40.91;100527.44;4809921;29;749;-61
2022/05/14 11:19:53;;;;;;;;;;;;;;;17.80;40.45;100533.75;4810290;29;880;-63
2022/05/14 11:22:19;;;;;;;;;;;;;;;17.70;40.26;100520.09;4809869;29;844;-62
2022/05/14 11:24:45;;;;;;;;;;;;;;;17.66;39.76;100517.09;4810195;29;783;-61
2022/05/14 11:27:10;;;;;;;;;;;;;;;17.57;39.77;100513.28;4809956;29;1328;-57
2022/05/14 11:29:49;;;;;;;;;;;;;;;17.52;39.71;100516.09;4809032;29;1221;-60
2022/05/14 11:32:15;;;;;;;;;;;;;;;17.50;39.29;100518.31;4807659;29;1375;-59
2022/05/14 11:34:57;;;;;;;;;;;;;;;17.48;39.06;100517.78;4808936;29;1911;-58
2022/05/14 11:37:30;;;;;;;;;;;;;;;17.42;39.08;100517.81;4805436;29;898;-61
2022/05/14 11:40:31;;;;;;;;;;;;;;;17.37;39.13;100506.03;4809358;29;808;-59
2022/05/14 11:43:05;;;;;;;;;;;;;;;17.31;39.13;100504.44;4771275;30;1511;-60
2022/05/14 11:45:30;;;;;;;;;;;;;;;17.30;38.87;100505.53;4803569;29;1294;-61
2022/05/14 11:48:05;;;;;;;;;;;;;;;17.27;38.94;100495.94;4809881;29;824;-60
2022/05/14 11:50:35;;;;;;;;;;;;;;;17.27;38.98;100487.69;4809156;29;870;-59
2022/05/14 11:53:12;;;;;;;;;;;;;;;17.19;38.97;100493.78;4808243;29;805;-60
2022/05/14 11:55:48;;;;;;;;;;;;;;;17.24;38.63;100499.25;4809518;29;1906;-63
2022/05/14 11:58:22;;;;;;;;;;;;;;;17.19;38.74;100491.03;4809398;29;916;-59
2022/05/14 12:00:48;;;;;;;;;;;;;;;17.19;38.77;100491.03;4809500;29;997;-64
2022/05/14 12:03:16;;;;;;;;;;;;;;;17.21;39.55;100483.34;4807741;29;898;-60
2022/05/14 12:05:47;;;;;;;;;;;;;;;17.39;40.29;100490.06;4808186;29;868;-62
2022/05/14 12:08:29;;;;;;;;;;;;;;;17.53;41.62;100484.72;4809120;29;870;-65
2022/05/14 12:11:24;;;;;;;;;;;;;;;17.75;42.38;100487.88;4809633;29;941;-64
2022/05/14 12:14:08;;;;;;;;;;;;;;;17.88;43.12;100485.53;4776050;29;1316;-63
2022/05/14 12:16:39;;;;;;;;;;;;;;;18.05;43.60;100479.66;4808600;29;1983;-61
2022/05/14 12:19:09;;;;;;;;;;;;;;;18.11;43.82;100482.03;4807664;29;1024;-64
2022/05/14 12:21:35;;;;;;;;;;;;;;;18.17;44.26;100482.78;4809382;29;815;-64
2022/05/14 12:24:00;;;;;;;;;;;;;;;18.24;44.11;100487.97;4807870;29;800;-64
2022/05/14 12:26:29;;;;;;;;;;;;;;;18.29;44.41;100490.66;4809901;29;751;-60
2022/05/14 12:28:59;;;;;;;;;;;;;;;18.27;44.15;100481.88;4808231;29;1060;-63
2022/05/14 12:34:31;;;;;;;;;;;;;;;18.03;42.65;100482.66;4775732;29;1261;-62
2022/05/14 12:36:57;;;;;;;;;;;;;;;17.91;41.80;100474.00;4809029;29;836;-64
2022/05/14 12:39:23;;;;;;;;;;;;;;;17.83;41.04;100477.34;4809203;29;1031;-62
2022/05/14 12:41:50;;;;;;;;;;;;;;;17.82;40.43;100472.94;4809273;29;855;-60
2022/05/14 12:44:17;;;;;;;;;;;;;;;17.70;40.21;100476.91;4807793;29;757;-64
2022/05/14 12:46:44;;;;;;;;;;;;;;;17.65;39.91;100474.19;4807693;29;1064;-62
2022/05/14 12:49:21;;;;;;;;;;;;;;;17.56;39.60;100479.50;4809034;29;883;-64
2022/05/14 12:51:47;;;;;;;;;;;;;;;17.51;39.32;100478.72;4807831;29;820;-64
2022/05/14 12:54:19;;;;;;;;;;;;;;;17.50;39.29;100474.31;4808743;29;882;-63
2022/05/14 12:56:46;;;;;;;;;;;;;;;17.43;39.15;100483.72;4808933;29;1911;-60
2022/05/14 12:59:11;;;;;;;;;;;;;;;17.42;38.96;100471.06;4807604;29;837;-63
2022/05/14 13:01:36;;;;;;;;;;;;;;;17.33;38.94;100470.03;4809035;29;1000;-63
2022/05/14 13:04:03;;;;;;;;;;;;;;;17.32;39.01;100465.66;4808884;29;817;-61
2022/05/14 13:06:29;;;;;;;;;;;;;;;17.30;38.91;100465.13;4807325;29;1308;-62
2022/05/14 13:08:57;;;;;;;;;;;;;;;17.34;38.93;100466.19;4808726;29;1387;-63
2022/05/14 13:11:23;;;;;;;;;;;;;;;17.27;39.13;100466.50;4807946;29;756;-61
2022/05/14 13:13:53;;;;;;;;;;;;;;;17.25;39.16;100465.97;4808619;29;805;-65
2022/05/14 13:16:19;;;;;;;;;;;;;;;17.18;38.91;100467.41;4808598;29;1916;-66
2022/05/14 13:18:46;;;;;;;;;;;;;;;17.19;39.14;100458.06;4808826;29;868;-61